Time;durP1;ratioP1;P1;durP2;ratioP2;P2;SDS_P1;SDS_P2;PMS_P1;PMS_P2;Temp;Humidity;BMP_temperature;BMP_pressure;BME280_temperature;BME280_humidity;BME280_pressure;Samples;Min_cycle;Max_cycle;Signal;HPM_P1;HPM_P2
2022/10/07 00:01:19;;;;;;;16.45;4.38;;;;;;;10.10;100.00;102646.81;2615781;36;20054;-57
2022/10/07 00:03:47;;;;;;;9.27;3.42;;;;;;;10.18;100.00;102635.59;2615673;36;20034;-55
2022/10/07 00:06:20;;;;;;;13.00;3.53;;;;;;;10.10;100.00;102635.19;2615009;36;20042;-52
2022/10/07 00:08:51;;;;;;;10.15;3.53;;;;;;;9.99;100.00;102638.50;2615588;36;20038;-54
2022/10/07 00:11:22;;;;;;;6.88;3.65;;;;;;;10.03;100.00;102632.00;2615520;36;20038;-54
2022/10/07 00:13:52;;;;;;;13.55;3.67;;;;;;;10.11;100.00;102629.72;2614740;36;20034;-52
2022/10/07 00:16:23;;;;;;;12.93;3.50;;;;;;;10.16;100.00;102635.69;2616916;36;20412;-52
2022/10/07 00:18:53;;;;;;;10.52;3.47;;;;;;;10.14;100.00;102629.56;2615327;31;20030;-56
2022/10/07 00:21:24;;;;;;;12.73;3.78;;;;;;;10.13;100.00;102625.13;2615591;31;20519;-56
2022/10/07 00:23:53;;;;;;;9.82;4.28;;;;;;;10.12;100.00;102625.22;2615156;36;20447;-57
2022/10/07 00:26:23;;;;;;;8.05;4.32;;;;;;;10.12;100.00;102617.13;2616074;36;20022;-52
2022/10/07 00:28:52;;;;;;;5.05;3.20;;;;;;;10.04;100.00;102619.41;2615632;36;20039;-50
2022/10/07 00:31:23;;;;;;;11.23;3.85;;;;;;;10.08;100.00;102611.06;2616017;36;20030;-58
2022/10/07 00:33:52;;;;;;;12.60;4.15;;;;;;;10.00;100.00;102608.81;2615859;36;20038;-56
2022/10/07 00:36:25;;;;;;;9.00;3.50;;;;;;;9.97;100.00;102609.00;2615971;36;20029;-53
2022/10/07 00:38:55;;;;;;;6.68;3.65;;;;;;;10.00;100.00;102607.97;2615599;36;20240;-54
2022/10/07 00:41:26;;;;;;;16.08;4.20;;;;;;;10.01;100.00;102601.59;2616666;36;20552;-50
2022/10/07 00:43:55;;;;;;;11.95;3.90;;;;;;;10.00;100.00;102597.19;2615003;36;20035;-52
2022/10/07 00:46:30;;;;;;;10.10;3.47;;;;;;;9.91;100.00;102597.72;2615903;36;20574;-53
2022/10/07 00:49:02;;;;;;;9.77;3.75;;;;;;;10.00;100.00;102597.19;2615665;36;20038;-55
2022/10/07 00:51:35;;;;;;;7.97;3.90;;;;;;;9.97;100.00;102589.31;2616290;36;20416;-51
2022/10/07 00:54:05;;;;;;;11.57;3.80;;;;;;;9.91;100.00;102587.84;2615776;36;20045;-54
2022/10/07 00:56:34;;;;;;;9.10;3.90;;;;;;;10.05;100.00;102588.84;2617134;36;20407;-51
2022/10/07 00:59:04;;;;;;;9.65;3.28;;;;;;;10.09;100.00;102585.03;2614367;36;20034;-51
2022/10/07 01:01:32;;;;;;;6.88;3.75;;;;;;;10.06;100.00;102588.75;2614880;36;20035;-54
2022/10/07 01:04:01;;;;;;;15.35;4.63;;;;;;;10.00;100.00;102591.81;2615376;36;20170;-52
2022/10/07 01:06:29;;;;;;;8.63;4.03;;;;;;;9.94;100.00;102584.13;2615684;36;20034;-54
2022/10/07 01:09:00;;;;;;;14.10;3.72;;;;;;;10.02;100.00;102578.28;2615735;36;20543;-52
2022/10/07 01:11:41;;;;;;;11.32;4.05;;;;;;;9.98;100.00;102572.19;2615513;36;20057;-51
2022/10/07 01:14:14;;;;;;;8.82;3.67;;;;;;;10.06;100.00;102574.47;2615392;36;20484;-53
2022/10/07 01:16:54;;;;;;;11.98;5.13;;;;;;;9.93;100.00;102563.53;2616042;36;20161;-53
2022/10/07 01:19:42;;;;;;;11.23;4.22;;;;;;;10.00;100.00;102556.84;2614486;36;20026;-53
2022/10/07 01:22:27;;;;;;;11.88;3.33;;;;;;;10.07;100.00;102555.53;2614645;31;20038;-53
2022/10/07 01:25:11;;;;;;;7.30;3.80;;;;;;;10.07;100.00;102550.16;2614653;36;20039;-54
2022/10/07 01:27:48;;;;;;;7.20;3.72;;;;;;;10.05;100.00;102557.44;2615778;36;20578;-51
2022/10/07 01:30:18;;;;;;;10.20;3.92;;;;;;;10.07;100.00;102547.47;2614268;36;20065;-55
2022/10/07 01:32:52;;;;;;;9.13;3.45;;;;;;;10.05;100.00;102549.34;2613585;36;20061;-52
2022/10/07 01:35:25;;;;;;;9.95;4.13;;;;;;;9.93;100.00;102544.72;2615267;36;20064;-54
2022/10/07 01:37:59;;;;;;;10.48;3.58;;;;;;;9.89;100.00;102545.84;2617048;31;20485;-53
2022/10/07 01:40:30;;;;;;;6.25;3.50;;;;;;;9.93;100.00;102536.66;2615363;36;20149;-52
2022/10/07 01:43:02;;;;;;;10.20;4.47;;;;;;;10.03;100.00;102537.84;2616204;31;20041;-55
2022/10/07 01:45:32;;;;;;;11.07;4.07;;;;;;;9.91;100.00;102533.16;2615507;36;20520;-54
2022/10/07 01:48:01;;;;;;;12.75;4.80;;;;;;;9.84;100.00;102521.06;2614323;36;20039;-52
2022/10/07 01:50:32;;;;;;;8.83;4.03;;;;;;;10.00;100.00;102516.50;2615284;31;20042;-55
2022/10/07 01:53:15;;;;;;;18.67;4.50;;;;;;;9.95;100.00;102521.28;2616117;31;20023;-53
2022/10/07 01:55:54;;;;;;;14.55;3.92;;;;;;;9.95;100.00;102514.09;2615306;36;20536;-52
2022/10/07 01:58:36;;;;;;;12.00;4.70;;;;;;;9.84;100.00;102513.84;2615807;36;20643;-53
2022/10/07 02:01:12;;;;;;;9.82;4.68;;;;;;;9.80;100.00;102510.50;2614116;36;20034;-54
2022/10/07 02:03:57;;;;;;;10.35;3.92;;;;;;;9.77;100.00;102507.97;2615458;36;20045;-55
2022/10/07 02:06:38;;;;;;;15.85;4.40;;;;;;;9.78;100.00;102501.63;2615935;36;20022;-51
2022/10/07 02:09:13;;;;;;;11.55;4.90;;;;;;;9.65;100.00;102495.25;2615794;36;20038;-52
2022/10/07 02:11:46;;;;;;;14.48;4.25;;;;;;;9.68;100.00;102492.38;2615327;36;20027;-52
2022/10/07 02:14:22;;;;;;;11.32;4.28;;;;;;;9.67;100.00;102484.41;2612680;36;20041;-52
2022/10/07 02:16:55;;;;;;;11.73;4.82;;;;;;;9.65;100.00;102484.50;2615566;36;20061;-53
2022/10/07 02:19:26;;;;;;;10.10;4.63;;;;;;;9.64;100.00;102480.06;2615570;36;20030;-54
2022/10/07 02:21:58;;;;;;;12.00;4.32;;;;;;;9.76;100.00;102476.66;2615763;36;20445;-51
2022/10/07 02:24:31;;;;;;;13.95;4.93;;;;;;;9.76;100.00;102471.28;2613611;36;20035;-50
2022/10/07 02:27:04;;;;;;;10.75;4.38;;;;;;;9.84;100.00;102472.66;2616363;31;20419;-54
2022/10/07 02:29:38;;;;;;;13.20;4.13;;;;;;;9.78;100.00;102463.13;2613494;36;20029;-53
2022/10/07 02:32:11;;;;;;;10.77;3.92;;;;;;;9.73;100.00;102463.41;2615816;31;20038;-54
2022/10/07 02:34:44;;;;;;;15.57;5.53;;;;;;;9.73;100.00;102459.84;2614838;36;20034;-54
2022/10/07 02:37:18;;;;;;;12.35;4.00;;;;;;;9.70;100.00;102455.53;2614911;36;20092;-54
2022/10/07 02:39:47;;;;;;;15.38;4.47;;;;;;;9.78;100.00;102458.59;2615529;36;20045;-50
2022/10/07 02:42:24;;;;;;;8.52;4.45;;;;;;;9.81;100.00;102441.44;2615315;36;20030;-53
2022/10/07 02:45:01;;;;;;;14.57;4.85;;;;;;;9.80;100.00;102439.69;2614562;36;20066;-51
2022/10/07 02:47:35;;;;;;;13.27;4.90;;;;;;;9.74;100.00;102435.53;2616100;36;20446;-53
2022/10/07 02:50:09;;;;;;;13.27;4.28;;;;;;;9.91;100.00;102439.03;2615756;36;20034;-51
2022/10/07 02:52:39;;;;;;;12.27;3.88;;;;;;;9.96;100.00;102434.25;2615186;31;20034;-54
2022/10/07 02:55:11;;;;;;;21.75;4.97;;;;;;;9.96;100.00;102428.88;2614481;36;20582;-51
2022/10/07 02:57:43;;;;;;;12.90;4.45;;;;;;;10.09;100.00;102431.69;2615622;36;20023;-50
2022/10/07 03:00:16;;;;;;;10.35;4.25;;;;;;;10.16;100.00;102431.22;2615809;36;20035;-50
2022/10/07 03:02:51;;;;;;;11.38;5.05;;;;;;;10.11;100.00;102425.22;2615964;31;20034;-54
2022/10/07 03:05:21;;;;;;;16.52;4.32;;;;;;;10.07;100.00;102436.28;2616409;36;20033;-52
2022/10/07 03:07:52;;;;;;;14.93;4.80;;;;;;;10.06;100.00;102426.50;2615260;36;20023;-54
2022/10/07 03:10:20;;;;;;;17.00;4.93;;;;;;;10.07;100.00;102430.91;2616329;36;20041;-55
2022/10/07 03:12:49;;;;;;;17.80;4.50;;;;;;;10.02;100.00;102424.94;2616452;36;20030;-50
2022/10/07 03:15:20;;;;;;;12.85;4.50;;;;;;;10.06;100.00;102421.13;2614647;36;20065;-53
2022/10/07 03:17:49;;;;;;;13.15;5.68;;;;;;;10.02;100.00;102417.72;2615465;36;20160;-51
2022/10/07 03:20:17;;;;;;;13.73;5.53;;;;;;;10.09;100.00;102407.47;2616506;36;20035;-51
2022/10/07 03:22:45;;;;;;;15.15;5.03;;;;;;;10.18;100.00;102412.28;2615670;36;20034;-56
2022/10/07 03:25:15;;;;;;;15.53;5.07;;;;;;;10.05;100.00;102396.03;2615777;36;20030;-53
2022/10/07 03:27:44;;;;;;;;;;;;;;;10.09;100.00;102402.09;2615860;36;20257;-57
2022/10/07 03:30:13;;;;;;;;;;;;;;;9.95;100.00;102403.81;2614914;31;19951;-51
2022/10/07 03:32:44;;;;;;;16.93;5.57;;;;;;;9.99;100.00;102402.63;2616094;36;20096;-51
2022/10/07 03:35:12;;;;;;;12.23;4.32;;;;;;;10.00;100.00;102400.84;2615982;36;20300;-52
2022/10/07 03:37:40;;;;;;;13.27;4.95;;;;;;;9.96;100.00;102399.28;2615043;36;20022;-55
2022/10/07 03:40:10;;;;;;;15.70;4.97;;;;;;;10.01;100.00;102394.47;2616584;36;20435;-49
2022/10/07 03:42:39;;;;;;;15.18;4.57;;;;;;;10.04;100.00;102394.31;2615794;36;20030;-53
2022/10/07 03:45:08;;;;;;;10.40;4.95;;;;;;;9.97;100.00;102403.72;2615416;36;20507;-51
2022/10/07 03:47:37;;;;;;;10.27;4.47;;;;;;;10.06;100.00;102403.13;2615024;31;20035;-51
2022/10/07 03:50:09;;;;;;;16.38;4.97;;;;;;;10.00;100.00;102395.47;2615822;36;20034;-54
2022/10/07 03:52:38;;;;;;;13.82;4.72;;;;;;;10.08;100.00;102390.44;2615177;36;20543;-55
2022/10/07 03:55:07;;;;;;;19.20;5.97;;;;;;;9.98;100.00;102379.41;2615431;36;20026;-54
2022/10/07 04:00:19;;;;;;;15.10;5.28;;;;;;;9.88;100.00;102385.44;2614906;36;20045;-55
2022/10/07 04:02:48;;;;;;;18.42;5.30;;;;;;;9.83;100.00;102385.72;2615714;31;20030;-58
2022/10/07 04:05:20;;;;;;;12.03;4.80;;;;;;;9.88;100.00;102389.00;2615081;36;20041;-50
2022/10/07 04:07:50;;;;;;;11.63;5.03;;;;;;;9.91;100.00;102383.44;2615357;36;20022;-57
2022/10/07 04:10:21;;;;;;;15.02;6.00;;;;;;;9.89;100.00;102389.88;2615732;36;20047;-50
2022/10/07 04:12:50;;;;;;;16.10;5.57;;;;;;;9.78;100.00;102377.09;2615651;36;20027;-57
2022/10/07 04:15:19;;;;;;;14.55;5.88;;;;;;;9.90;100.00;102383.53;2614449;36;20034;-55
2022/10/07 04:17:48;;;;;;;15.43;5.35;;;;;;;9.97;100.00;102371.44;2615511;36;20041;-53
2022/10/07 04:20:19;;;;;;;19.42;5.20;;;;;;;9.97;100.00;102366.06;2615171;36;20034;-57
2022/10/07 04:22:47;;;;;;;14.07;4.80;;;;;;;9.81;100.00;102363.44;2615786;36;20038;-56
2022/10/07 04:27:58;;;;;;;15.85;5.15;;;;;;;9.87;100.00;102360.38;2614018;36;20038;-52
2022/10/07 04:30:28;;;;;;;14.45;5.43;;;;;;;9.86;100.00;102371.22;2615357;36;20034;-54
2022/10/07 04:32:56;;;;;;;17.08;5.30;;;;;;;9.90;100.00;102362.88;2616319;36;20022;-54
2022/10/07 04:35:27;;;;;;;17.23;4.68;;;;;;;9.82;100.00;102368.72;2615084;36;20038;-54
2022/10/07 04:37:56;;;;;;;16.85;4.78;;;;;;;9.93;100.00;102365.38;2612360;36;20023;-54
2022/10/07 04:40:26;;;;;;;11.77;4.60;;;;;;;9.89;100.00;102366.50;2613910;36;20515;-49
2022/10/07 04:45:35;;;;;;;12.07;4.78;;;;;;;9.74;100.00;102349.50;2613988;31;20045;-54
2022/10/07 04:48:04;;;;;;;15.35;4.82;;;;;;;9.79;100.00;102352.78;2616594;31;20038;-54
2022/10/07 04:50:37;;;;;;;11.85;4.10;;;;;;;9.82;100.00;102351.75;2616291;36;20045;-55
2022/10/07 04:53:05;;;;;;;10.80;4.18;;;;;;;9.78;100.00;102350.19;2615282;36;20034;-53
2022/10/07 04:55:37;;;;;;;12.23;4.60;;;;;;;9.89;100.00;102342.31;2615425;36;20045;-51
2022/10/07 04:58:06;;;;;;;12.95;4.50;;;;;;;9.86;100.00;102337.13;2614936;36;20076;-51
2022/10/07 05:00:35;;;;;;;14.55;4.50;;;;;;;9.99;100.00;102337.22;2614394;36;20038;-49
2022/10/07 05:03:03;;;;;;;12.98;4.47;;;;;;;9.97;100.00;102341.84;2613834;36;20046;-54
2022/10/07 05:05:34;;;;;;;13.85;3.90;;;;;;;10.06;100.00;102337.72;2614979;36;20042;-54
2022/10/07 05:08:02;;;;;;;17.67;4.07;;;;;;;10.05;100.00;102342.22;2608931;36;20045;-53
2022/10/07 05:10:31;;;;;;;12.23;4.32;;;;;;;10.08;100.00;102336.63;2611907;31;20031;-53
2022/10/07 05:13:00;;;;;;;5.72;3.50;;;;;;;9.98;100.00;102325.63;2615102;36;20057;-48
2022/10/07 05:15:28;;;;;;;15.50;4.75;;;;;;;9.99;100.00;102331.84;2614570;36;20023;-50
2022/10/07 05:17:56;;;;;;;15.82;4.00;;;;;;;10.11;100.00;102327.53;2614704;31;20035;-52
2022/10/07 05:20:25;;;;;;;13.30;4.03;;;;;;;10.05;100.00;102328.78;2609804;36;20590;-57
2022/10/07 05:22:56;;;;;;;12.90;4.50;;;;;;;10.13;100.00;102325.63;2614620;36;20429;-53
2022/10/07 05:25:24;;;;;;;8.65;3.70;;;;;;;10.11;100.00;102328.38;2614156;36;20034;-54
2022/10/07 05:27:54;;;;;;;10.70;4.35;;;;;;;10.00;100.00;102329.06;2615221;36;20023;-53
2022/10/07 05:30:23;;;;;;;13.77;4.40;;;;;;;10.00;100.00;102328.22;2610486;36;20031;-53
2022/10/07 05:32:53;;;;;;;10.20;3.78;;;;;;;10.04;100.00;102326.19;2612350;36;20061;-55
2022/10/07 05:35:21;;;;;;;13.82;3.95;;;;;;;10.08;100.00;102328.56;2614967;36;20129;-51
2022/10/07 05:37:56;;;;;;;13.73;4.00;;;;;;;10.11;100.00;102314.94;2613725;36;20037;-52
2022/10/07 05:40:24;;;;;;;12.70;4.25;;;;;;;10.13;100.00;102307.63;2616320;31;20412;-55
2022/10/07 05:42:53;;;;;;;11.85;4.32;;;;;;;10.19;100.00;102311.78;2615193;36;20023;-51
2022/10/07 05:45:21;;;;;;;9.35;3.35;;;;;;;10.17;100.00;102317.25;2615551;36;20033;-55
2022/10/07 05:47:50;;;;;;;12.85;3.40;;;;;;;10.26;100.00;102312.22;2614743;36;20026;-57
2022/10/07 05:50:18;;;;;;;13.65;3.53;;;;;;;10.21;100.00;102312.53;2615687;36;20038;-56
2022/10/07 05:52:46;;;;;;;11.13;3.63;;;;;;;10.27;100.00;102313.97;2615499;36;20401;-54
2022/10/07 05:55:17;;;;;;;10.68;3.70;;;;;;;10.24;100.00;102314.16;2613201;36;20038;-54
2022/10/07 05:57:45;;;;;;;11.02;3.88;;;;;;;10.07;100.00;102313.41;2615547;36;20081;-55
2022/10/07 06:00:14;;;;;;;16.60;3.53;;;;;;;10.11;100.00;102304.16;2612655;36;20447;-58
2022/10/07 06:02:43;;;;;;;15.43;4.53;;;;;;;10.09;100.00;102298.03;2615943;36;20864;-48
2022/10/07 06:05:11;;;;;;;13.88;3.45;;;;;;;10.10;100.00;102302.47;2616261;36;20053;-54
2022/10/07 06:07:39;;;;;;;14.20;4.40;;;;;;;10.14;100.00;102293.22;2614526;36;21703;-55
2022/10/07 06:15:33;;;;;;;10.07;3.92;;;;;;;10.10;100.00;102299.75;2615130;36;20033;-54
2022/10/07 06:18:01;;;;;;;10.05;3.25;;;;;;;10.11;100.00;102298.78;2619341;36;20041;-50
2022/10/07 06:20:29;;;;;;;10.38;3.15;;;;;;;10.21;100.00;102298.22;2615435;31;21215;-53
2022/10/07 06:22:58;;;;;;;15.85;3.83;;;;;;;10.15;100.00;102305.69;2615717;36;20022;-57
2022/10/07 06:25:26;;;;;;;10.97;4.23;;;;;;;10.13;100.00;102288.81;2616363;36;20377;-56
2022/10/07 06:27:59;;;;;;;8.50;3.08;;;;;;;10.21;100.00;102292.84;2615034;36;20495;-50
2022/10/07 06:30:28;;;;;;;14.73;3.15;;;;;;;10.32;100.00;102301.06;2614994;36;20582;-54
2022/10/07 06:32:56;;;;;;;11.38;3.80;;;;;;;10.32;100.00;102303.75;2616102;36;20045;-54
2022/10/07 06:35:24;;;;;;;10.85;3.40;;;;;;;10.31;100.00;102302.03;2615548;36;20030;-50
2022/10/07 06:37:53;;;;;;;10.10;3.40;;;;;;;10.38;100.00;102300.72;2614157;32;20053;-54
2022/10/07 06:40:21;;;;;;;14.70;3.90;;;;;;;10.42;100.00;102304.06;2615215;36;20057;-55
2022/10/07 06:42:49;;;;;;;8.48;3.60;;;;;;;10.47;100.00;102297.41;2616273;36;20031;-54
2022/10/07 06:45:20;;;;;;;11.38;3.30;;;;;;;10.61;100.00;102306.41;2615378;31;20031;-55
2022/10/07 06:47:48;;;;;;;7.85;3.45;;;;;;;10.59;100.00;102297.59;2615567;36;20038;-53
2022/10/07 06:50:17;;;;;;;8.65;3.30;;;;;;;10.59;100.00;102301.13;2615124;36;20030;-53
2022/10/07 06:52:45;;;;;;;13.40;3.63;;;;;;;10.61;100.00;102303.72;2612855;36;20444;-53
2022/10/07 06:55:13;;;;;;;9.40;3.53;;;;;;;10.49;100.00;102313.47;2612400;36;20062;-53
2022/10/07 06:57:42;;;;;;;8.98;3.20;;;;;;;10.59;100.00;102313.75;2614179;36;20035;-55
2022/10/07 07:00:12;;;;;;;11.52;3.35;;;;;;;10.57;100.00;102310.28;2613874;31;20042;-55
2022/10/07 07:02:43;;;;;;;12.75;3.72;;;;;;;10.73;100.00;102315.50;2613772;31;20023;-53
2022/10/07 07:05:16;;;;;;;8.35;2.97;;;;;;;10.66;100.00;102315.06;2601450;31;20034;-54
2022/10/07 07:07:44;;;;;;;11.48;3.15;;;;;;;10.68;100.00;102313.13;2599803;31;20046;-52
2022/10/07 07:10:13;;;;;;;12.88;3.72;;;;;;;10.83;100.00;102312.09;2610850;36;20045;-52
2022/10/07 07:12:41;;;;;;;12.43;3.45;;;;;;;10.85;100.00;102304.81;2612413;36;20042;-54
2022/10/07 07:15:11;;;;;;;12.65;3.40;;;;;;;10.91;100.00;102297.25;2610555;36;20034;-54
2022/10/07 07:17:39;;;;;;;10.00;2.75;;;;;;;10.99;100.00;102295.78;2610110;36;20030;-54
2022/10/07 07:20:12;;;;;;;12.52;3.03;;;;;;;11.09;100.00;102295.19;2613032;31;20037;-56
2022/10/07 07:22:40;;;;;;;12.10;3.38;;;;;;;11.16;100.00;102308.13;2614564;36;20030;-55
2022/10/07 07:25:10;;;;;;;11.98;4.05;;;;;;;11.37;100.00;102304.94;2615473;31;20039;-56
2022/10/07 07:27:40;;;;;;;10.23;3.65;;;;;;;11.32;100.00;102296.28;2615216;36;20081;-53
2022/10/07 07:30:09;;;;;;;12.15;3.17;;;;;;;11.33;100.00;102301.56;2614722;31;20073;-54
2022/10/07 07:32:37;;;;;;;;;;;;;;;11.35;100.00;102302.34;2614750;36;20031;-52
2022/10/07 07:35:06;;;;;;;10.30;3.13;;;;;;;11.47;100.00;102289.84;2614071;36;19954;-53
2022/10/07 07:37:37;;;;;;;8.63;2.72;;;;;;;11.55;100.00;102292.84;2615420;36;20030;-55
2022/10/07 07:40:06;;;;;;;10.20;2.70;;;;;;;11.61;100.00;102288.00;2615193;36;20038;-53
2022/10/07 07:42:36;;;;;;;12.93;2.90;;;;;;;11.95;100.00;102289.19;2614751;36;20034;-51
2022/10/07 07:45:04;;;;;;;7.28;2.42;;;;;;;11.89;100.00;102295.84;2615612;36;20030;-54
2022/10/07 07:47:33;;;;;;;9.48;3.10;;;;;;;12.01;100.00;102293.28;2614254;36;20610;-49
2022/10/07 07:50:02;;;;;;;9.20;2.30;;;;;;;12.05;100.00;102286.72;2615420;36;20108;-52
2022/10/07 07:52:30;;;;;;;17.60;2.90;;;;;;;12.11;100.00;102283.56;2616682;31;20093;-54
2022/10/07 07:55:02;;;;;;;13.65;2.95;;;;;;;12.13;100.00;102283.44;2615758;36;20023;-56
2022/10/07 07:57:32;;;;;;;9.00;2.72;;;;;;;12.26;100.00;102271.66;2616238;36;20030;-50
2022/10/07 08:00:00;;;;;;;14.00;2.47;;;;;;;12.44;100.00;102277.53;2615372;36;20030;-55
2022/10/07 08:02:28;;;;;;;8.60;2.60;;;;;;;12.57;100.00;102280.19;2615366;36;20031;-52
2022/10/07 08:04:57;;;;;;;16.77;4.03;;;;;;;12.60;100.00;102268.28;2614674;31;20041;-55
2022/10/07 08:07:25;;;;;;;14.20;2.30;;;;;;;12.69;100.00;102272.13;2609165;36;20041;-56
2022/10/07 08:09:54;;;;;;;10.63;2.33;;;;;;;12.76;100.00;102263.47;2615413;31;20126;-49
2022/10/07 08:12:24;;;;;;;9.45;3.10;;;;;;;12.91;100.00;102264.16;2616677;36;20065;-55
2022/10/07 08:14:53;;;;;;;6.40;2.72;;;;;;;13.11;100.00;102269.84;2609101;36;20034;-51
2022/10/07 08:17:21;;;;;;;10.15;2.20;;;;;;;13.07;100.00;102276.47;2615972;36;20053;-54
2022/10/07 08:19:49;;;;;;;10.25;2.85;;;;;;;13.33;100.00;102282.56;2613386;36;20041;-53
2022/10/07 08:22:18;;;;;;;9.03;2.50;;;;;;;13.33;100.00;102277.16;2614936;36;20030;-54
2022/10/07 08:24:46;;;;;;;9.23;2.38;;;;;;;13.13;100.00;102276.88;2612012;36;20034;-55
2022/10/07 08:27:14;;;;;;;6.22;2.00;;;;;;;13.11;100.00;102269.84;2614541;36;20574;-52
2022/10/07 08:29:45;;;;;;;14.00;3.17;;;;;;;13.22;100.00;102269.00;2614457;36;20031;-53
2022/10/07 08:32:13;;;;;;;12.00;2.15;;;;;;;13.09;100.00;102272.69;2615207;36;20030;-51
2022/10/07 08:34:42;;;;;;;8.60;2.38;;;;;;;13.19;100.00;102258.44;2614625;36;20037;-51
2022/10/07 08:37:10;;;;;;;11.98;3.08;;;;;;;13.26;100.00;102259.69;2615171;36;20038;-53
2022/10/07 08:39:38;;;;;;;9.10;3.55;;;;;;;13.27;100.00;102262.28;2616402;31;20605;-54
2022/10/07 08:42:12;;;;;;;13.40;2.33;;;;;;;13.43;100.00;102258.41;2615549;31;20042;-56
2022/10/07 08:44:42;;;;;;;8.95;2.17;;;;;;;13.52;100.00;102254.13;2614116;36;20045;-58
2022/10/07 08:47:19;;;;;;;11.20;2.15;;;;;;;13.50;100.00;102246.13;2615853;36;20049;-51
2022/10/07 08:49:57;;;;;;;10.43;2.65;;;;;;;13.54;100.00;102241.34;2615017;36;20042;-55
2022/10/07 08:52:43;;;;;;;7.88;2.00;;;;;;;13.76;100.00;102241.31;2615959;31;20030;-54
2022/10/07 08:55:20;;;;;;;10.95;2.40;;;;;;;14.02;100.00;102233.81;2615786;36;20534;-54
2022/10/07 08:58:06;;;;;;;16.88;2.08;;;;;;;14.12;100.00;102230.34;2615589;36;20061;-55
2022/10/07 09:00:43;;;;;;;22.13;2.72;;;;;;;14.44;100.00;102235.84;2614755;36;20166;-54
2022/10/07 09:03:26;;;;;;;19.17;2.40;;;;;;;14.47;100.00;102226.56;2614683;36;20061;-56
2022/10/07 09:05:57;;;;;;;11.85;2.72;;;;;;;14.43;100.00;102228.69;2614806;36;20034;-52
2022/10/07 09:08:31;;;;;;;6.50;1.80;;;;;;;14.36;100.00;102228.31;2615359;36;20428;-56
2022/10/07 09:11:14;;;;;;;10.90;2.38;;;;;;;14.53;100.00;102224.22;2614607;36;20030;-53
2022/10/07 09:13:46;;;;;;;7.68;2.13;;;;;;;14.75;100.00;102227.84;2614745;36;20031;-56
2022/10/07 09:16:19;;;;;;;10.90;2.22;;;;;;;14.71;100.00;102224.53;2608800;36;20456;-54
2022/10/07 09:18:52;;;;;;;7.78;2.17;;;;;;;14.67;100.00;102223.06;2607881;36;20042;-55
2022/10/07 09:21:24;;;;;;;8.20;2.22;;;;;;;14.86;100.00;102235.94;2614877;36;20061;-52
2022/10/07 09:23:57;;;;;;;12.25;2.38;;;;;;;14.93;100.00;102222.72;2614764;36;20170;-54
2022/10/07 09:26:29;;;;;;;12.27;2.72;;;;;;;14.88;100.00;102216.81;2615234;36;20081;-56
2022/10/07 09:28:58;;;;;;;17.27;3.97;;;;;;;15.07;100.00;102217.00;2613657;36;20030;-52
2022/10/07 09:31:26;;;;;;;10.13;2.33;;;;;;;15.45;100.00;102208.34;2615563;36;20035;-55
2022/10/07 09:33:57;;;;;;;26.45;6.38;;;;;;;15.49;100.00;102201.63;2615743;36;20056;-55
2022/10/07 09:36:25;;;;;;;10.32;2.50;;;;;;;15.42;100.00;102206.75;2615969;36;20034;-55
2022/10/07 09:38:54;;;;;;;9.02;2.05;;;;;;;15.55;100.00;102198.41;2615011;36;20032;-55
2022/10/07 09:41:30;;;;;;;13.77;3.23;;;;;;;15.68;100.00;102199.03;2616061;36;20038;-56
2022/10/07 09:44:03;;;;;;;13.43;3.33;;;;;;;15.71;100.00;102196.03;2615022;36;20034;-57
2022/10/07 09:46:45;;;;;;;9.48;2.22;;;;;;;15.69;100.00;102195.28;2615532;36;20552;-55
2022/10/07 09:49:37;;;;;;;10.40;2.10;;;;;;;15.80;100.00;102197.09;2615383;36;20031;-53
2022/10/07 09:52:07;;;;;;;9.93;3.33;;;;;;;15.77;100.00;102189.19;2615673;36;20034;-55
2022/10/07 09:54:37;;;;;;;10.88;2.30;;;;;;;15.83;100.00;102182.41;2615430;36;20022;-55
2022/10/07 09:57:07;;;;;;;12.15;2.95;;;;;;;15.83;100.00;102175.09;2614144;36;20038;-54
2022/10/07 09:59:39;;;;;;;10.15;2.42;;;;;;;16.15;100.00;102167.72;2614891;36;20030;-57
2022/10/07 10:02:21;;;;;;;11.40;2.78;;;;;;;16.04;100.00;102171.44;2615909;36;20130;-57
2022/10/07 10:04:54;;;;;;;12.38;2.50;;;;;;;16.52;100.00;102172.47;2615885;31;20455;-54
2022/10/07 10:07:27;;;;;;;9.77;2.17;;;;;;;16.77;100.00;102169.19;2615696;36;20035;-54
2022/10/07 10:09:57;;;;;;;6.85;2.08;;;;;;;16.80;100.00;102173.47;2612747;31;20038;-54
2022/10/07 10:12:26;;;;;;;8.27;2.20;;;;;;;16.49;100.00;102170.03;2616030;36;20038;-53
2022/10/07 10:14:56;;;;;;;11.90;2.47;;;;;;;16.38;100.00;102157.47;2614240;36;20034;-52
2022/10/07 10:17:29;;;;;;;11.25;2.30;;;;;;;16.41;100.00;102162.59;2615326;31;20559;-54
2022/10/07 10:20:28;;;;;;;15.05;2.53;;;;;;;16.21;100.00;102156.28;2607930;36;20038;-56
2022/10/07 10:22:57;;;;;;;12.75;2.90;;;;;;;16.44;100.00;102146.88;2615627;31;20069;-55
2022/10/07 10:28:16;;;;;;;11.13;2.22;;;;;;;16.50;100.00;102147.31;2608124;36;19957;-56
2022/10/07 10:30:53;;;;;;;7.25;1.88;;;;;;;16.38;100.00;102136.56;2615978;31;20026;-57
2022/10/07 10:33:29;;;;;;;8.32;1.98;;;;;;;16.53;100.00;102136.13;2613976;36;20034;-56
2022/10/07 10:36:12;;;;;;;9.48;2.20;;;;;;;16.21;100.00;102129.13;2615188;36;20023;-56
2022/10/07 10:38:48;;;;;;;10.45;1.85;;;;;;;16.62;100.00;102143.41;2614575;36;20030;-55
2022/10/07 10:41:26;;;;;;;6.53;1.42;;;;;;;16.94;100.00;102134.09;2615068;36;20602;-55
2022/10/07 10:44:13;;;;;;;8.90;1.50;;;;;;;17.13;100.00;102136.75;2613988;36;20443;-56
2022/10/07 10:46:54;;;;;;;6.57;2.13;;;;;;;17.06;100.00;102124.75;2615652;36;20041;-55
2022/10/07 10:49:31;;;;;;;11.38;2.00;;;;;;;16.86;100.00;102123.06;2613802;36;20023;-54
2022/10/07 10:52:36;;;;;;;7.03;2.00;;;;;;;16.95;100.00;102119.50;2613022;31;20034;-53
2022/10/07 10:55:20;;;;;;;7.45;1.98;;;;;;;16.99;100.00;102113.63;2613344;36;20059;-56
2022/10/07 10:58:03;;;;;;;12.10;2.20;;;;;;;17.06;100.00;102115.75;2615224;31;20042;-55
2022/10/07 11:00:39;;;;;;;8.95;1.75;;;;;;;17.16;100.00;102113.84;2614968;36;20432;-53
2022/10/07 11:03:27;;;;;;;10.13;2.83;;;;;;;17.08;100.00;102105.59;2614167;36;20019;-55
2022/10/07 11:05:58;;;;;;;9.43;1.90;;;;;;;16.90;100.00;102091.88;2612372;36;20031;-56
2022/10/07 11:08:32;;;;;;;9.70;2.10;;;;;;;17.06;100.00;102094.84;2613904;36;20022;-55
2022/10/07 11:11:07;;;;;;;13.50;2.30;;;;;;;16.96;100.00;102102.16;2614795;36;20201;-56
2022/10/07 11:13:42;;;;;;;8.85;1.80;;;;;;;16.91;100.00;102097.19;2614553;36;20528;-58
2022/10/07 11:16:16;;;;;;;9.77;2.35;;;;;;;17.06;100.00;102078.50;2615075;36;20035;-57
2022/10/07 11:18:50;;;;;;;6.95;2.25;;;;;;;17.64;100.00;102084.69;2615402;36;20380;-57
2022/10/07 11:21:25;;;;;;;11.55;2.47;;;;;;;17.79;100.00;102083.16;2616059;36;20041;-55
2022/10/07 11:24:02;;;;;;;8.32;2.15;;;;;;;17.59;100.00;102070.69;2615333;31;20031;-57
2022/10/07 11:26:37;;;;;;;6.78;2.00;;;;;;;17.44;100.00;102076.63;2615498;36;20069;-58
2022/10/07 11:29:17;;;;;;;8.18;1.83;;;;;;;17.41;100.00;102067.91;2608544;36;20552;-53
2022/10/07 11:31:54;;;;;;;7.15;1.88;;;;;;;17.21;100.00;102067.16;2615342;36;20053;-58
2022/10/07 11:34:29;;;;;;;8.93;2.30;;;;;;;17.23;100.00;102059.72;2614852;36;20049;-53
2022/10/07 11:37:05;;;;;;;9.95;2.50;;;;;;;17.44;100.00;102060.28;2608757;36;20046;-56
2022/10/07 11:39:39;;;;;;;15.70;3.70;;;;;;;17.50;100.00;102050.66;2615554;36;20053;-59
2022/10/07 11:42:13;;;;;;;12.75;2.00;;;;;;;17.64;100.00;102043.88;2615210;36;20053;-56
2022/10/07 11:44:48;;;;;;;8.85;2.25;;;;;;;17.69;100.00;102039.63;2615108;36;20042;-56
2022/10/07 11:47:22;;;;;;;8.75;2.25;;;;;;;17.66;100.00;102039.09;2615967;36;20082;-56
2022/10/07 11:49:57;;;;;;;10.52;2.22;;;;;;;17.70;100.00;102029.63;2615323;36;20038;-57
2022/10/07 11:52:28;;;;;;;7.85;1.75;;;;;;;17.84;100.00;102023.66;2614946;31;20022;-56